Time;durP1;ratioP1;P1;durP2;ratioP2;P2;SDS_P1;SDS_P2;PMS_P1;PMS_P2;Temp;Humidity;BMP_temperature;BMP_pressure;BME280_temperature;BME280_humidity;BME280_pressure;Samples;Min_cycle;Max_cycle;Signal;HPM_P1;HPM_P2
2022/04/14 00:00:37;;;;;;;15.20;9.27;;;11.70;99.90;;;;;;5027864;28;20840;-66
2022/04/14 00:03:03;;;;;;;10.98;9.07;;;11.80;99.90;;;;;;5030503;28;20042;-66
2022/04/14 00:05:29;;;;;;;17.88;10.57;;;11.60;99.90;;;;;;5016819;28;20060;-66
2022/04/14 00:07:54;;;;;;;15.30;10.43;;;11.60;99.90;;;;;;5013365;28;20077;-66
2022/04/14 00:10:20;;;;;;;14.25;10.52;;;11.70;99.90;;;;;;5018880;28;20045;-66
2022/04/14 00:12:48;;;;;;;16.00;10.48;;;11.50;99.90;;;;;;5030579;28;20061;-66
2022/04/14 00:15:13;;;;;;;17.58;11.27;;;11.40;99.90;;;;;;5013522;28;20053;-66
2022/04/14 00:17:39;;;;;;;13.73;10.13;;;11.30;99.90;;;;;;5018435;28;20054;-66
2022/04/14 00:20:07;;;;;;;17.00;8.98;;;11.20;99.90;;;;;;5013976;28;20049;-66
2022/04/14 00:22:33;;;;;;;13.82;10.30;;;11.20;99.90;;;;;;5013450;28;20045;-66
2022/04/14 00:24:59;;;;;;;16.05;10.10;;;11.00;99.90;;;;;;5012210;28;20180;-66
2022/04/14 00:27:25;;;;;;;13.25;9.55;;;11.00;99.90;;;;;;5017390;28;20043;-66
2022/04/14 00:29:50;;;;;;;13.73;10.48;;;11.00;99.90;;;;;;5012658;28;20481;-66
2022/04/14 00:32:16;;;;;;;12.98;9.90;;;10.90;99.90;;;;;;5029543;28;20044;-66
2022/04/14 00:34:42;;;;;;;16.75;10.25;;;10.90;99.90;;;;;;5027167;28;20049;-66
2022/04/14 00:37:09;;;;;;;14.05;9.57;;;10.90;99.90;;;;;;5024337;28;20045;-66
2022/04/14 00:39:35;;;;;;;13.25;9.90;;;10.90;99.90;;;;;;5019467;28;20089;-66
2022/04/14 00:42:07;;;;;;;17.08;10.15;;;10.70;99.90;;;;;;5029845;28;20045;-66
2022/04/14 00:44:33;;;;;;;18.33;10.23;;;10.80;99.90;;;;;;5026856;28;20392;-66
2022/04/14 00:46:58;;;;;;;15.27;10.75;;;10.90;99.90;;;;;;5016356;28;20050;-66
2022/04/14 00:49:24;;;;;;;18.27;10.50;;;10.80;99.90;;;;;;5024473;28;20052;-66
2022/04/14 00:51:49;;;;;;;20.48;12.35;;;11.00;99.90;;;;;;5030085;28;20070;-66
2022/04/14 00:54:15;;;;;;;20.30;13.70;;;11.00;99.90;;;;;;5018544;28;20509;-66
2022/04/14 00:56:41;;;;;;;23.38;13.95;;;11.00;99.90;;;;;;5012220;28;20096;-66
2022/04/14 00:59:06;;;;;;;20.13;14.55;;;11.00;99.90;;;;;;5010311;28;20050;-66
2022/04/14 01:01:32;;;;;;;23.02;15.70;;;11.00;99.90;;;;;;5009606;28;20050;-65
2022/04/14 01:03:59;;;;;;;24.02;15.23;;;11.10;99.90;;;;;;5038057;28;20053;-66
2022/04/14 01:06:26;;;;;;;22.75;15.52;;;11.00;99.90;;;;;;5016843;28;20044;-66
2022/04/14 01:11:38;;;;;;;27.65;18.80;;;11.20;99.90;;;;;;5020357;28;20646;-66
2022/04/14 01:14:04;;;;;;;30.48;17.30;;;11.20;99.90;;;;;;5014792;28;20049;-66
2022/04/14 01:16:29;;;;;;;23.67;18.00;;;11.30;99.90;;;;;;5030866;28;20056;-66
2022/04/14 01:18:55;;;;;;;28.67;18.15;;;11.30;99.90;;;;;;5022923;28;20046;-66
2022/04/14 01:21:21;;;;;;;28.30;17.88;;;11.30;99.90;;;;;;5011332;28;20137;-66
2022/04/14 01:23:48;;;;;;;29.02;19.80;;;11.40;99.90;;;;;;5010287;28;20413;-66
2022/04/14 01:26:13;;;;;;;28.35;20.40;;;11.30;99.90;;;;;;5011533;28;20046;-66
2022/04/14 01:28:39;;;;;;;33.03;20.35;;;11.30;99.90;;;;;;5017104;28;20631;-66
2022/04/14 01:31:05;;;;;;;32.15;19.48;;;11.30;99.90;;;;;;5027060;28;20452;-66
2022/04/14 01:33:31;;;;;;;25.77;19.35;;;11.30;99.90;;;;;;5015980;28;20049;-66
2022/04/14 01:35:56;;;;;;;24.35;17.75;;;11.30;99.90;;;;;;5027595;28;20049;-66
2022/04/14 01:38:22;;;;;;;30.63;19.63;;;11.20;99.90;;;;;;5029611;28;20041;-66
2022/04/14 01:40:47;;;;;;;25.65;18.40;;;11.00;99.90;;;;;;5028057;28;20053;-66
2022/04/14 01:43:13;;;;;;;25.52;19.33;;;11.10;99.90;;;;;;5014009;28;20045;-66
2022/04/14 01:45:38;;;;;;;31.80;20.15;;;11.20;99.90;;;;;;5029508;28;20088;-66
2022/04/14 01:48:04;;;;;;;28.33;17.90;;;11.20;99.90;;;;;;5025995;28;20041;-66
2022/04/14 01:50:30;;;;;;;28.00;19.73;;;11.20;99.90;;;;;;5010053;28;20108;-66
2022/04/14 01:52:55;;;;;;;39.30;20.73;;;11.20;99.90;;;;;;5027973;28;20497;-66
2022/04/14 01:55:21;;;;;;;26.17;18.33;;;11.10;99.90;;;;;;5019563;28;20174;-66
2022/04/14 01:57:47;;;;;;;29.48;20.85;;;10.90;99.90;;;;;;5016594;28;20820;-66
2022/04/14 02:00:14;;;;;;;28.52;20.00;;;10.80;99.90;;;;;;5018327;28;20053;-66
2022/04/14 02:02:40;;;;;;;22.73;17.85;;;10.90;99.90;;;;;;5021560;28;20057;-66
2022/04/14 02:05:06;;;;;;;32.15;20.38;;;10.80;99.90;;;;;;5014981;28;20508;-66
2022/04/14 02:07:32;;;;;;;29.92;19.77;;;10.80;99.90;;;;;;5025117;28;20052;-66
2022/04/14 02:09:57;;;;;;;29.83;19.25;;;10.70;99.90;;;;;;5015282;28;20034;-66
2022/04/14 02:12:24;;;;;;;30.02;20.60;;;10.70;99.90;;;;;;5009151;28;20557;-66
2022/04/14 02:14:50;;;;;;;36.50;23.02;;;10.70;99.90;;;;;;5010173;28;20049;-66
2022/04/14 02:17:16;;;;;;;30.60;20.45;;;10.70;99.90;;;;;;5023405;28;20061;-66
2022/04/14 02:19:41;;;;;;;25.45;18.85;;;10.50;99.90;;;;;;5029253;28;20049;-66
2022/04/14 02:22:07;;;;;;;28.77;19.58;;;10.50;99.90;;;;;;5021190;28;20141;-66
2022/04/14 02:24:33;;;;;;;31.73;18.85;;;10.60;99.90;;;;;;5024884;28;20091;-66
2022/04/14 02:26:59;;;;;;;28.98;19.10;;;10.40;99.90;;;;;;5047134;28;20475;-66
2022/04/14 02:29:24;;;;;;;26.17;19.40;;;10.30;99.90;;;;;;5019644;28;20057;-66
2022/04/14 02:31:52;;;;;;;30.27;21.00;;;10.50;99.90;;;;;;5020008;28;20511;-66
2022/04/14 02:34:17;;;;;;;27.38;19.48;;;10.50;99.90;;;;;;5012430;28;20124;-66
2022/04/14 02:36:43;;;;;;;31.95;18.63;;;10.30;99.90;;;;;;5029286;28;20141;-66
2022/04/14 02:39:09;;;;;;;29.00;21.42;;;10.20;99.90;;;;;;5028495;28;20187;-66
2022/04/14 02:41:35;;;;;;;32.92;20.67;;;10.30;99.90;;;;;;5023186;28;20113;-66
2022/04/14 02:44:00;;;;;;;31.42;19.95;;;10.30;99.90;;;;;;5010152;28;20136;-66
2022/04/14 02:46:26;;;;;;;20.73;17.88;;;10.20;99.90;;;;;;5028800;28;20389;-66
2022/04/14 02:48:52;;;;;;;30.92;20.45;;;10.20;99.90;;;;;;5025057;28;20503;-66
2022/04/14 02:51:17;;;;;;;29.40;20.50;;;10.20;99.90;;;;;;5013604;28;20038;-66
2022/04/14 02:53:43;;;;;;;35.00;20.25;;;10.20;99.90;;;;;;5023238;28;20413;-66
2022/04/14 02:56:10;;;;;;;33.38;21.02;;;9.90;99.90;;;;;;5013662;28;20129;-66
2022/04/14 02:58:37;;;;;;;24.17;18.52;;;10.00;99.90;;;;;;5028226;28;20048;-66
2022/04/14 03:01:02;;;;;;;30.65;20.13;;;10.10;99.90;;;;;;5036223;28;20049;-66
2022/04/14 03:03:28;;;;;;;29.58;19.05;;;10.00;99.90;;;;;;5009702;28;20417;-66
2022/04/14 03:05:54;;;;;;;27.58;19.60;;;10.00;99.90;;;;;;5019050;28;20057;-66
2022/04/14 03:08:20;;;;;;;28.92;19.65;;;10.00;99.90;;;;;;5026153;28;20048;-66
2022/04/14 03:10:45;;;;;;;24.92;17.55;;;9.90;99.90;;;;;;5031675;28;20049;-66
2022/04/14 03:13:11;;;;;;;27.70;19.35;;;9.90;99.90;;;;;;5029614;28;20048;-66
2022/04/14 03:15:37;;;;;;;28.30;20.42;;;9.90;99.90;;;;;;5017323;28;20054;-66
2022/04/14 03:18:03;;;;;;;32.17;20.10;;;9.80;99.90;;;;;;5020908;28;20042;-66
2022/04/14 03:20:29;;;;;;;30.98;20.63;;;9.70;99.90;;;;;;5033165;28;20108;-66
2022/04/14 03:22:58;;;;;;;27.42;18.25;;;9.70;99.90;;;;;;5032717;28;20580;-66
2022/04/14 03:25:24;;;;;;;30.95;21.65;;;9.60;99.90;;;;;;5029162;28;20056;-66
2022/04/14 03:27:50;;;;;;;30.30;18.00;;;9.60;99.90;;;;;;5017846;28;20095;-66
2022/04/14 03:30:15;;;;;;;29.38;20.52;;;9.50;99.90;;;;;;5039858;28;20049;-66
2022/04/14 03:32:43;;;;;;;29.00;19.20;;;9.50;99.90;;;;;;5031286;28;20045;-66
2022/04/14 03:35:10;;;;;;;23.63;17.85;;;9.50;99.90;;;;;;5031269;28;20390;-66
2022/04/14 03:37:35;;;;;;;24.27;17.88;;;9.50;99.90;;;;;;5023186;28;20037;-66
2022/04/14 03:40:01;;;;;;;27.73;20.45;;;9.60;99.90;;;;;;5015281;28;22065;-66
2022/04/14 03:42:27;;;;;;;27.05;18.83;;;9.60;99.90;;;;;;5032602;28;20042;-66
2022/04/14 03:44:52;;;;;;;29.73;20.35;;;9.70;99.90;;;;;;5030122;28;20500;-65
2022/04/14 03:47:18;;;;;;;25.73;17.50;;;9.60;99.90;;;;;;5020726;28;20050;-66
2022/04/14 03:49:43;;;;;;;28.85;18.35;;;9.60;99.90;;;;;;5012400;28;20050;-66
2022/04/14 03:52:09;;;;;;;25.35;19.02;;;9.70;99.90;;;;;;5016645;28;20343;-66
2022/04/14 03:54:34;;;;;;;27.85;20.38;;;9.80;99.90;;;;;;5031963;28;20049;-66
2022/04/14 03:57:00;;;;;;;28.05;19.98;;;9.70;99.90;;;;;;5031215;28;20450;-66
2022/04/14 03:59:26;;;;;;;31.13;18.77;;;9.50;99.90;;;;;;5027592;28;20057;-66
2022/04/14 04:01:51;;;;;;;26.33;18.35;;;9.50;99.90;;;;;;5024241;28;20128;-66
2022/04/14 04:04:17;;;;;;;28.63;18.17;;;9.50;99.90;;;;;;5014111;28;20049;-66
2022/04/14 04:06:43;;;;;;;30.42;17.65;;;9.60;99.90;;;;;;5030950;28;20091;-66
2022/04/14 04:09:09;;;;;;;28.65;18.77;;;9.40;99.90;;;;;;5012332;28;20493;-66
2022/04/14 04:11:34;;;;;;;26.35;18.38;;;9.40;99.90;;;;;;5026089;28;20116;-66
2022/04/14 04:14:00;;;;;;;36.17;19.02;;;9.40;99.90;;;;;;5019340;28;20042;-66
2022/04/14 04:16:25;;;;;;;27.08;18.85;;;9.50;99.90;;;;;;5015813;28;20046;-66
2022/04/14 04:18:51;;;;;;;28.35;19.10;;;9.50;99.90;;;;;;5015198;28;20396;-66
2022/04/14 04:21:16;;;;;;;31.73;20.45;;;9.50;99.90;;;;;;5015691;28;20486;-66
2022/04/14 04:23:42;;;;;;;24.27;20.15;;;9.60;99.90;;;;;;5011924;28;20133;-66
2022/04/14 04:26:07;;;;;;;22.88;17.75;;;9.60;99.90;;;;;;5014465;28;20056;-66
2022/04/14 04:28:33;;;;;;;37.97;20.13;;;9.50;99.90;;;;;;5024896;28;20091;-66
2022/04/14 04:30:58;;;;;;;28.58;19.85;;;9.50;99.90;;;;;;5012136;28;20133;-66
2022/04/14 04:33:24;;;;;;;25.00;18.67;;;9.60;99.90;;;;;;5012470;28;20112;-66
2022/04/14 04:35:50;;;;;;;29.42;18.23;;;9.50;99.90;;;;;;5039843;28;20045;-66
2022/04/14 04:38:16;;;;;;;26.45;18.42;;;9.50;99.90;;;;;;5038514;28;20454;-66
2022/04/14 04:40:41;;;;;;;31.17;18.92;;;9.40;99.90;;;;;;5009117;28;20136;-66
2022/04/14 04:43:08;;;;;;;21.35;17.10;;;9.40;99.90;;;;;;5021273;28;20474;-66
2022/04/14 04:45:37;;;;;;;28.95;18.63;;;9.40;99.90;;;;;;5012258;28;20050;-66
2022/04/14 04:48:04;;;;;;;29.00;19.40;;;9.40;99.90;;;;;;5010526;28;20045;-66
2022/04/14 04:50:30;;;;;;;31.15;20.95;;;9.40;99.90;;;;;;5013399;28;20058;-66
2022/04/14 04:52:55;;;;;;;28.40;21.30;;;9.50;99.90;;;;;;5035804;28;20075;-66
2022/04/14 04:55:21;;;;;;;42.83;21.90;;;9.50;99.90;;;;;;5014273;28;20057;-66
2022/04/14 04:57:46;;;;;;;28.50;21.08;;;9.60;99.90;;;;;;5022477;28;20045;-66
2022/04/14 05:00:13;;;;;;;34.78;23.13;;;9.60;99.90;;;;;;5031601;28;20130;-66
2022/04/14 05:02:38;;;;;;;27.77;19.90;;;9.60;99.90;;;;;;5025276;28;20053;-66
2022/04/14 05:05:04;;;;;;;30.98;21.27;;;9.60;99.90;;;;;;5031404;28;20099;-66
2022/04/14 05:07:30;;;;;;;32.17;21.77;;;9.60;99.90;;;;;;5016761;28;20393;-66
2022/04/14 05:09:56;;;;;;;30.17;22.55;;;9.70;99.90;;;;;;5035200;28;20045;-66
2022/04/14 05:12:21;;;;;;;30.73;19.23;;;9.70;99.90;;;;;;5034121;28;20463;-66
2022/04/14 05:14:47;;;;;;;33.10;21.10;;;9.70;99.90;;;;;;5030324;28;20037;-66
2022/04/14 05:17:12;;;;;;;32.67;19.58;;;9.80;99.90;;;;;;5021120;28;20697;-66
2022/04/14 05:19:38;;;;;;;31.33;20.63;;;9.80;99.90;;;;;;5026388;28;20598;-66
2022/04/14 05:22:04;;;;;;;27.95;20.00;;;9.90;99.90;;;;;;5026760;28;20052;-66
2022/04/14 05:24:32;;;;;;;28.13;20.08;;;9.90;99.90;;;;;;5011069;28;20050;-66
2022/04/14 05:26:58;;;;;;;26.38;17.90;;;9.90;99.90;;;;;;5017058;28;20774;-66
2022/04/14 05:29:24;;;;;;;35.78;22.08;;;9.90;99.90;;;;;;5010421;28;20053;-66
2022/04/14 05:31:50;;;;;;;26.15;18.60;;;9.80;99.90;;;;;;5018533;28;20140;-66
2022/04/14 05:34:15;;;;;;;26.80;18.70;;;9.90;99.90;;;;;;5012621;28;20064;-66
2022/04/14 05:36:41;;;;;;;25.48;18.58;;;9.80;99.90;;;;;;5029376;28;20440;-66
2022/04/14 05:39:06;;;;;;;36.45;20.15;;;9.80;99.90;;;;;;5023555;28;20045;-66
2022/04/14 05:41:32;;;;;;;26.05;19.08;;;9.90;99.90;;;;;;5028852;28;20045;-66
2022/04/14 05:43:58;;;;;;;32.75;21.25;;;9.90;99.90;;;;;;5024241;28;20054;-66
2022/04/14 05:46:24;;;;;;;31.10;18.92;;;9.90;99.90;;;;;;5010794;28;20037;-66
2022/04/14 05:48:50;;;;;;;27.23;19.10;;;9.90;99.90;;;;;;5028132;28;20520;-66
2022/04/14 05:51:16;;;;;;;34.40;21.85;;;9.90;99.90;;;;;;5028929;28;20124;-66
2022/04/14 05:53:41;;;;;;;31.77;19.52;;;9.90;99.90;;;;;;5022489;28;20128;-66
2022/04/14 05:56:07;;;;;;;30.98;19.85;;;9.90;99.90;;;;;;5022649;28;20505;-66
2022/04/14 05:58:33;;;;;;;31.75;20.17;;;10.00;99.90;;;;;;5019467;28;20117;-66
2022/04/14 06:00:58;;;;;;;28.00;19.80;;;10.00;99.90;;;;;;5013570;28;20473;-65
2022/04/14 06:03:25;;;;;;;27.58;19.08;;;10.00;99.90;;;;;;5028308;28;20477;-66
2022/04/14 06:05:51;;;;;;;28.15;19.95;;;10.00;99.90;;;;;;5026424;28;20099;-66
2022/04/14 06:08:18;;;;;;;26.73;20.08;;;10.00;99.90;;;;;;5009644;28;20037;-66
2022/04/14 06:10:43;;;;;;;43.45;20.90;;;10.10;99.90;;;;;;5022819;28;20050;-66
2022/04/14 06:13:11;;;;;;;31.58;19.90;;;10.20;99.90;;;;;;5019080;28;20125;-66
2022/04/14 06:15:37;;;;;;;28.50;20.25;;;10.30;99.90;;;;;;5023044;28;20064;-66
2022/04/14 06:18:02;;;;;;;25.30;19.63;;;10.40;99.90;;;;;;5012207;28;20172;-66
2022/04/14 06:20:28;;;;;;;40.80;22.42;;;10.50;99.90;;;;;;5009889;28;20037;-66
2022/04/14 06:22:56;;;;;;;29.67;22.33;;;10.60;99.90;;;;;;5012151;28;20473;-66
2022/04/14 06:25:22;;;;;;;39.00;24.63;;;10.60;99.90;;;;;;5011217;28;20038;-66
2022/04/14 06:27:49;;;;;;;31.55;21.55;;;10.70;99.90;;;;;;5018488;28;20041;-66
2022/04/14 06:30:17;;;;;;;32.78;23.70;;;10.70;99.90;;;;;;5025727;28;20052;-66
2022/04/14 06:32:57;;;;;;;31.90;23.63;;;10.80;99.90;;;;;;5020187;28;20049;-66
2022/04/14 06:35:23;;;;;;;42.25;23.38;;;10.80;99.90;;;;;;5021313;28;20041;-66
2022/04/14 06:37:48;;;;;;;34.45;22.88;;;10.90;99.90;;;;;;5022465;28;20046;-66
2022/04/14 06:40:14;;;;;;;38.20;23.27;;;10.90;99.90;;;;;;5017058;28;20536;-66
2022/04/14 06:42:39;;;;;;;32.70;22.40;;;10.90;99.90;;;;;;5027054;28;20049;-66
2022/04/14 06:45:05;;;;;;;36.58;24.38;;;11.00;99.90;;;;;;5031322;28;20052;-65
2022/04/14 06:47:32;;;;;;;40.03;25.38;;;11.10;99.90;;;;;;5032949;28;20045;-66
2022/04/14 06:49:57;;;;;;;36.60;23.15;;;11.10;99.90;;;;;;5024902;28;20045;-66
2022/04/14 06:52:23;;;;;;;37.15;21.50;;;11.10;99.90;;;;;;5019709;28;20107;-66
2022/04/14 06:54:49;;;;;;;39.83;22.48;;;11.20;99.90;;;;;;5023793;28;20619;-66
2022/04/14 06:57:15;;;;;;;29.50;22.23;;;11.30;99.90;;;;;;5014673;28;20425;-66
2022/04/14 06:59:40;;;;;;;35.63;22.92;;;11.30;99.90;;;;;;5023426;28;20048;-66
2022/04/14 07:02:07;;;;;;;30.08;22.00;;;11.30;99.90;;;;;;5028443;28;20038;-66
2022/04/14 07:04:33;;;;;;;34.35;22.60;;;11.40;99.90;;;;;;5031590;28;20821;-66
2022/04/14 07:06:59;;;;;;;32.28;22.65;;;11.50;99.90;;;;;;5024095;28;20033;-66
2022/04/14 07:09:25;;;;;;;32.50;22.08;;;11.60;99.90;;;;;;5026956;28;20045;-66
2022/04/14 07:11:51;;;;;;;33.33;22.90;;;11.60;99.90;;;;;;5022761;28;20425;-66
2022/04/14 07:14:18;;;;;;;36.38;22.52;;;11.70;99.90;;;;;;5021734;28;20746;-66
2022/04/14 07:16:44;;;;;;;30.40;21.30;;;11.70;99.90;;;;;;5019689;28;20053;-66
2022/04/14 07:19:09;;;;;;;30.98;20.73;;;11.80;99.90;;;;;;5018150;28;20404;-66
2022/04/14 07:21:35;;;;;;;39.20;22.40;;;11.80;99.90;;;;;;5019956;28;20045;-66
2022/04/14 07:24:01;;;;;;;33.15;21.27;;;11.90;99.90;;;;;;5029011;28;20053;-66
2022/04/14 07:26:26;;;;;;;30.73;21.60;;;11.90;99.90;;;;;;5021360;28;20053;-66
2022/04/14 07:28:52;;;;;;;35.05;22.20;;;12.00;99.90;;;;;;5031587;28;20033;-66
2022/04/14 07:31:17;;;;;;;27.98;20.60;;;12.00;99.90;;;;;;5032305;28;20134;-67
2022/04/14 07:33:43;;;;;;;28.35;20.77;;;12.10;99.90;;;;;;5030476;28;20049;-66
2022/04/14 07:36:09;;;;;;;31.70;20.73;;;12.20;99.90;;;;;;5027385;28;20045;-66
2022/04/14 07:38:34;;;;;;;31.35;20.48;;;12.20;99.90;;;;;;5031703;28;20444;-66
2022/04/14 07:41:05;;;;;;;29.08;19.25;;;12.30;99.90;;;;;;5026739;28;20045;-66
2022/04/14 07:43:31;;;;;;;32.25;19.83;;;12.30;99.90;;;;;;5021302;28;20041;-66
2022/04/14 07:45:57;;;;;;;32.63;20.42;;;12.40;99.90;;;;;;5022445;28;20038;-66
2022/04/14 07:48:22;;;;;;;30.90;19.17;;;12.40;99.90;;;;;;5019417;28;20147;-66
2022/04/14 07:50:49;;;;;;;26.95;18.58;;;12.50;99.90;;;;;;5044256;28;20512;-66
2022/04/14 07:53:15;;;;;;;33.13;20.52;;;12.50;99.90;;;;;;5030945;28;20108;-66
2022/04/14 07:55:41;;;;;;;26.33;18.02;;;12.60;99.90;;;;;;5012482;28;20602;-66
2022/04/14 07:58:07;;;;;;;27.83;17.33;;;12.70;99.90;;;;;;5011550;28;20052;-66
2022/04/14 08:00:35;;;;;;;29.42;18.30;;;12.70;99.90;;;;;;5020981;28;20431;-66
2022/04/14 08:03:02;;;;;;;27.33;17.63;;;12.80;99.90;;;;;;5032078;28;20049;-66
2022/04/14 08:05:38;;;;;;;29.98;16.95;;;12.80;99.90;;;;;;5013307;28;20041;-66
2022/04/14 08:08:06;;;;;;;26.55;16.45;;;12.90;99.90;;;;;;5015045;28;20443;-66
2022/04/14 08:10:32;;;;;;;21.90;15.88;;;12.90;99.90;;;;;;5031845;28;20153;-66
2022/04/14 08:12:57;;;;;;;23.98;17.23;;;13.10;99.90;;;;;;5019306;28;20156;-66
2022/04/14 08:15:23;;;;;;;29.25;17.27;;;13.10;99.90;;;;;;5012021;28;20045;-66
2022/04/14 08:17:49;;;;;;;24.33;16.48;;;13.20;99.90;;;;;;5025502;28;20125;-66
2022/04/14 08:20:16;;;;;;;23.88;16.65;;;13.30;99.90;;;;;;5031330;28;20482;-65
2022/04/14 08:22:48;;;;;;;23.02;16.83;;;13.30;99.90;;;;;;5031046;28;20038;-66
2022/04/14 08:25:17;;;;;;;27.55;19.08;;;13.50;99.90;;;;;;5031267;28;20504;-66
2022/04/14 08:27:43;;;;;;;28.52;18.92;;;13.80;99.90;;;;;;5031272;28;20083;-66
2022/04/14 08:30:09;;;;;;;23.25;17.73;;;14.20;99.90;;;;;;5030370;28;20238;-66
2022/04/14 08:32:35;;;;;;;26.02;17.38;;;14.90;99.90;;;;;;5019173;28;20117;-66
2022/04/14 08:35:05;;;;;;;22.90;15.85;;;15.50;99.90;;;;;;5011784;28;20453;-66
2022/04/14 08:37:31;;;;;;;20.23;13.93;;;16.20;99.90;;;;;;5010931;28;20042;-66
2022/04/14 08:39:57;;;;;;;19.98;14.73;;;16.60;99.90;;;;;;5013884;28;20140;-66
2022/04/14 08:42:32;;;;;;;33.90;14.82;;;17.30;99.90;;;;;;5028906;28;20053;-66
2022/04/14 08:45:03;;;;;;;19.15;13.52;;;17.70;99.90;;;;;;5031219;28;20118;-66
2022/04/14 08:47:29;;;;;;;19.17;14.25;;;18.10;99.90;;;;;;5030385;28;20548;-66
2022/04/14 08:49:57;;;;;;;23.70;12.57;;;18.40;99.90;;;;;;5010967;28;20129;-66
2022/04/14 08:52:24;;;;;;;16.60;10.98;;;18.60;99.90;;;;;;5031300;28;20042;-66
2022/04/14 08:54:50;;;;;;;18.48;10.80;;;18.80;99.90;;;;;;5030571;28;20097;-66
2022/04/14 08:57:16;;;;;;;13.07;9.15;;;19.10;99.90;;;;;;5030251;28;20409;-66
2022/04/14 08:59:45;;;;;;;13.77;10.13;;;19.50;99.90;;;;;;5015829;28;20049;-66
2022/04/14 09:02:17;;;;;;;13.70;9.35;;;19.50;99.90;;;;;;5022047;28;20049;-66
2022/04/14 09:04:43;;;;;;;19.17;9.23;;;19.50;99.90;;;;;;5025749;28;20408;-66
2022/04/14 09:07:10;;;;;;;15.60;8.55;;;19.70;99.90;;;;;;5017454;28;20046;-66
2022/04/14 09:09:36;;;;;;;9.00;6.32;;;19.90;99.90;;;;;;5024757;28;20033;-66
2022/04/14 09:12:02;;;;;;;11.35;5.88;;;19.80;99.90;;;;;;5030681;28;20052;-67
2022/04/14 09:14:31;;;;;;;10.90;7.32;;;19.80;99.90;;;;;;5017560;28;20417;-66
2022/04/14 09:16:57;;;;;;;10.20;6.10;;;20.00;99.90;;;;;;5011124;28;20045;-66
2022/04/14 09:19:24;;;;;;;10.82;6.50;;;20.20;99.90;;;;;;5010889;28;20191;-66
2022/04/14 09:22:10;;;;;;;10.65;5.97;;;20.10;99.90;;;;;;5013661;28;20049;-66
2022/04/14 09:24:51;;;;;;;9.27;6.43;;;19.90;99.90;;;;;;5023456;28;20048;-66
2022/04/14 09:27:37;;;;;;;8.80;4.95;;;19.90;99.90;;;;;;5017741;28;20049;-66
2022/04/14 09:30:05;;;;;;;10.02;6.63;;;19.70;99.90;;;;;;5022907;28;20103;-66
2022/04/14 09:32:38;;;;;;;13.75;6.15;;;19.60;99.90;;;;;;5025091;28;20113;-66
2022/04/14 09:35:14;;;;;;;11.73;7.10;;;19.70;99.90;;;;;;5021918;28;20041;-66
2022/04/14 09:37:41;;;;;;;11.57;6.53;;;19.50;99.90;;;;;;5016117;28;20049;-66
2022/04/14 09:40:08;;;;;;;13.07;8.45;;;19.60;99.90;;;;;;5029001;28;20039;-66
2022/04/14 09:42:42;;;;;;;14.43;6.70;;;19.50;99.90;;;;;;5018271;28;20047;-66
2022/04/14 09:45:25;;;;;;;7.88;5.18;;;19.00;99.90;;;;;;5025767;28;20052;-66
2022/04/14 09:47:52;;;;;;;9.20;5.93;;;19.00;99.90;;;;;;5026399;28;20049;-66
2022/04/14 09:50:35;;;;;;;8.40;5.63;;;18.90;99.90;;;;;;5028381;28;20063;-66
2022/04/14 09:53:22;;;;;;;15.18;7.72;;;18.80;99.90;;;;;;5025028;28;20059;-66
2022/04/14 09:55:50;;;;;;;13.00;8.07;;;19.00;99.90;;;;;;5028942;28;20051;-66
2022/04/14 09:58:18;;;;;;;12.98;8.68;;;19.20;99.90;;;;;;5030509;28;20528;-66
2022/04/14 10:00:51;;;;;;;11.65;7.22;;;19.40;99.90;;;;;;5028111;28;20091;-66
2022/04/14 10:03:19;;;;;;;13.90;8.25;;;19.50;99.90;;;;;;5025053;28;20084;-66
2022/04/14 10:05:46;;;;;;;9.25;6.88;;;19.50;99.90;;;;;;5024631;28;20081;-66
2022/04/14 10:08:16;;;;;;;10.75;6.53;;;19.80;99.90;;;;;;5014026;28;20385;-66
2022/04/14 10:10:43;;;;;;;11.52;6.30;;;19.90;99.90;;;;;;5028840;28;20049;-66
2022/04/14 10:13:18;;;;;;;8.57;5.10;;;19.90;99.90;;;;;;5024262;28;20137;-66
2022/04/14 10:15:48;;;;;;;12.55;6.15;;;20.00;99.90;;;;;;5016610;28;20041;-66
2022/04/14 10:18:17;;;;;;;11.95;6.63;;;20.00;99.90;;;;;;5029465;28;20049;-66
2022/04/14 10:20:47;;;;;;;13.32;6.70;;;20.20;99.90;;;;;;5028658;28;20095;-66
2022/04/14 10:23:15;;;;;;;12.05;5.53;;;20.00;99.90;;;;;;5012048;28;20052;-66
2022/04/14 10:25:42;;;;;;;12.35;6.22;;;19.70;99.90;;;;;;5021684;28;20061;-66
2022/04/14 10:28:14;;;;;;;9.82;6.60;;;19.30;99.90;;;;;;5029941;28;20073;-66
2022/04/14 10:30:55;;;;;;;7.65;5.40;;;19.40;99.90;;;;;;5028572;28;20072;-66
2022/04/14 10:33:21;;;;;;;12.38;6.38;;;19.20;99.90;;;;;;5015187;28;20056;-66
2022/04/14 10:35:47;;;;;;;11.70;6.03;;;19.10;99.90;;;;;;5023273;28;20092;-66
2022/04/14 10:38:22;;;;;;;10.40;6.00;;;19.40;99.90;;;;;;5029226;28;20460;-66
2022/04/14 10:41:02;;;;;;;8.75;6.03;;;19.30;99.90;;;;;;5019909;28;20104;-66
2022/04/14 10:43:29;;;;;;;10.93;5.10;;;19.30;99.90;;;;;;5023416;28;20041;-66
2022/04/14 10:45:56;;;;;;;10.95;5.82;;;19.20;99.90;;;;;;5028440;28;20060;-66
2022/04/14 10:48:35;;;;;;;10.10;5.35;;;19.00;99.90;;;;;;5020701;28;20041;-66
2022/04/14 10:51:27;;;;;;;14.30;6.10;;;19.00;99.90;;;;;;5027572;28;20053;-66
2022/04/14 10:54:00;;;;;;;8.70;5.32;;;19.00;99.90;;;;;;5024765;28;20097;-66
2022/04/14 10:56:41;;;;;;;6.53;4.45;;;19.00;99.90;;;;;;5014051;28;20048;-66
2022/04/14 10:59:11;;;;;;;9.82;4.40;;;18.80;99.90;;;;;;5029027;28;20064;-66
2022/04/14 11:01:46;;;;;;;8.07;3.78;;;19.00;99.90;;;;;;5018497;28;20041;-66
2022/04/14 11:04:42;;;;;;;6.95;4.43;;;19.40;99.90;;;;;;5021405;28;20559;-66
2022/04/14 11:07:12;;;;;;;6.68;3.55;;;19.20;99.90;;;;;;5010226;28;20100;-67
2022/04/14 11:09:42;;;;;;;8.02;4.22;;;19.20;99.90;;;;;;5009062;28;20427;-66
2022/04/14 11:12:19;;;;;;;14.63;4.30;;;19.20;99.90;;;;;;5012772;28;20029;-66
2022/04/14 11:14:51;;;;;;;9.50;3.78;;;19.20;99.90;;;;;;5019985;28;20041;-68
2022/04/14 11:17:37;;;;;;;8.73;4.10;;;19.10;99.90;;;;;;5007967;28;20049;-66
2022/04/14 11:20:12;;;;;;;9.48;4.28;;;18.70;99.90;;;;;;5012870;28;20051;-66
2022/04/14 11:23:12;;;;;;;6.78;3.80;;;18.80;99.90;;;;;;5027731;28;20397;-67
2022/04/14 11:25:44;;;;;;;8.40;4.57;;;18.90;99.90;;;;;;5026796;28;20053;-66
2022/04/14 11:28:24;;;;;;;11.60;4.68;;;18.70;99.90;;;;;;5017798;28;20050;-66
2022/04/14 11:30:54;;;;;;;8.60;4.88;;;19.00;99.90;;;;;;5028553;28;20437;-67
2022/04/14 11:33:28;;;;;;;15.00;5.90;;;19.10;99.90;;;;;;5031679;28;20563;-66
2022/04/14 11:36:05;;;;;;;;;;;18.90;99.90;;;;;;5025316;28;20050;-66
2022/04/14 11:38:55;;;;;;;11.88;4.97;;;18.90;99.90;;;;;;5020643;28;20008;-67
2022/04/14 11:41:35;;;;;;;8.93;4.35;;;19.00;99.90;;;;;;5025420;28;20045;-67
2022/04/14 11:44:03;;;;;;;11.52;4.00;;;19.10;99.90;;;;;;5018494;28;20458;-66
2022/04/14 11:46:29;;;;;;;11.27;5.05;;;19.10;99.90;;;;;;5030367;28;20180;-66
2022/04/14 11:48:55;;;;;;;12.35;5.70;;;19.40;99.90;;;;;;5031915;28;20069;-67
2022/04/14 11:51:20;;;;;;;10.35;5.03;;;19.50;99.90;;;;;;5016952;28;20482;-66
2022/04/14 11:53:46;;;;;;;8.50;5.60;;;19.50;99.90;;;;;;5014571;28;20053;-66
2022/04/14 11:56:19;;;;;;;11.55;5.72;;;19.30;99.90;;;;;;5032038;28;20044;-67
2022/04/14 11:58:45;;;;;;;9.10;4.97;;;19.50;99.90;;;;;;5017058;28;20123;-67
2022/04/14 12:01:12;;;;;;;9.02;4.68;;;19.80;99.90;;;;;;5027003;28;20328;-66
2022/04/14 12:03:38;;;;;;;8.10;5.57;;;19.90;99.90;;;;;;5015982;28;20715;-66
2022/04/14 12:06:06;;;;;;;10.13;4.88;;;19.90;99.90;;;;;;5027490;28;20041;-67
2022/04/14 12:08:32;;;;;;;9.38;4.20;;;20.00;99.90;;;;;;5030521;28;20045;-66
2022/04/14 12:11:02;;;;;;;9.23;4.35;;;20.10;99.90;;;;;;5017269;28;20056;-67
2022/04/14 12:13:31;;;;;;;8.88;4.75;;;20.10;99.90;;;;;;5024331;28;20041;-66
2022/04/14 12:16:07;;;;;;;8.88;4.65;;;20.30;99.90;;;;;;5024025;28;20045;-67
2022/04/14 12:18:34;;;;;;;19.85;4.95;;;20.10;99.90;;;;;;5029669;28;20072;-67
2022/04/14 12:21:00;;;;;;;10.77;4.50;;;20.30;99.90;;;;;;5032057;28;20049;-67
2022/04/14 12:23:26;;;;;;;10.35;4.57;;;20.20;99.90;;;;;;5014970;28;20052;-67
2022/04/14 12:25:53;;;;;;;11.82;4.38;;;20.10;99.90;;;;;;5030292;28;20100;-66
2022/04/14 12:28:18;;;;;;;9.98;4.45;;;19.70;99.90;;;;;;5021425;28;20394;-66
2022/04/14 12:30:44;;;;;;;8.93;4.03;;;19.70;99.90;;;;;;5023056;28;20038;-67
2022/04/14 12:33:10;;;;;;;9.82;5.30;;;19.70;99.90;;;;;;5012211;28;20042;-67
2022/04/14 12:35:40;;;;;;;14.50;4.10;;;19.70;99.90;;;;;;5019687;28;20049;-66
2022/04/14 12:38:19;;;;;;;8.57;4.45;;;19.70;99.90;;;;;;5023431;28;20095;-66